Time;durP1;ratioP1;P1;durP2;ratioP2;P2;SDS_P1;SDS_P2;PMS_P1;PMS_P2;Temp;Humidity;BMP_temperature;BMP_pressure;BME280_temperature;BME280_humidity;BME280_pressure;Samples;Min_cycle;Max_cycle;Signal;HPM_P1;HPM_P2
2022/04/03 00:00:12;;;;;;;5.28;3.30;;;22.90;35.60;;;;;;6113720;28;80366;-68
2022/04/03 00:03:13;;;;;;;6.13;3.38;;;22.90;35.50;;;;;;6111047;28;81939;-68
2022/04/03 00:06:13;;;;;;;4.65;3.40;;;22.80;35.50;;;;;;6112703;28;80407;-68
2022/04/03 00:09:14;;;;;;;7.28;3.85;;;22.80;35.50;;;;;;6112327;28;80596;-68
2022/04/03 00:12:14;;;;;;;4.75;3.28;;;22.80;36.10;;;;;;6112336;28;80631;-68
2022/04/03 00:15:15;;;;;;;5.50;2.88;;;22.80;35.40;;;;;;6112362;28;80436;-68
2022/04/03 00:18:15;;;;;;;5.15;3.15;;;22.80;35.40;;;;;;6111870;28;80480;-68
2022/04/03 00:21:16;;;;;;;3.78;2.97;;;22.80;35.40;;;;;;6112069;28;80451;-68
2022/04/03 00:24:17;;;;;;;5.35;3.05;;;22.80;35.40;;;;;;6111568;28;81229;-68
2022/04/03 00:27:17;;;;;;;4.82;3.28;;;22.80;35.30;;;;;;6112417;28;80313;-67
2022/04/03 00:30:18;;;;;;;4.53;3.20;;;22.80;35.30;;;;;;6110593;28;80667;-65
2022/04/03 00:33:18;;;;;;;6.50;3.67;;;22.80;35.30;;;;;;6111977;28;80236;-67
2022/04/03 00:36:19;;;;;;;6.32;3.50;;;22.80;35.40;;;;;;6105637;28;81405;-65
2022/04/03 00:39:20;;;;;;;8.15;3.80;;;22.80;35.30;;;;;;6110749;28;81805;-67
2022/04/03 00:42:20;;;;;;;7.10;4.25;;;22.90;35.40;;;;;;6112201;28;80281;-67
2022/04/03 00:45:21;;;;;;;6.72;4.00;;;22.90;35.50;;;;;;6112330;28;80543;-66
2022/04/03 00:48:22;;;;;;;8.15;4.32;;;22.80;35.40;;;;;;6109761;28;82988;-65
2022/04/03 00:51:25;;;;;;;8.13;4.50;;;22.80;35.40;;;;;;6105427;28;80505;-67
2022/04/03 00:54:25;;;;;;;6.30;4.43;;;22.80;35.40;;;;;;6110958;28;80508;-67
2022/04/03 00:57:26;;;;;;;7.07;4.75;;;22.90;35.30;;;;;;6111839;28;80276;-67
2022/04/03 01:00:26;;;;;;;8.82;5.38;;;22.80;35.30;;;;;;6123102;28;80437;-67
2022/04/03 01:03:28;;;;;;;6.07;4.43;;;22.80;35.30;;;;;;6123335;28;80453;-67
2022/04/03 01:06:29;;;;;;;8.98;5.00;;;22.80;35.30;;;;;;6111913;28;80397;-67
2022/04/03 01:09:29;;;;;;;10.32;5.20;;;22.80;35.40;;;;;;6110771;28;80595;-68
2022/04/03 01:12:30;;;;;;;8.85;5.85;;;22.80;36.00;;;;;;6111175;28;80404;-67
2022/04/03 01:15:30;;;;;;;8.43;5.18;;;22.80;35.30;;;;;;6111207;28;80343;-67
2022/04/03 01:18:31;;;;;;;8.93;5.30;;;22.80;35.20;;;;;;6103520;28;80476;-67
2022/04/03 01:21:31;;;;;;;8.82;5.32;;;22.80;35.20;;;;;;6111397;28;80385;-68
2022/04/03 01:24:32;;;;;;;10.82;5.40;;;22.80;35.20;;;;;;6110664;28;80386;-68
2022/04/03 01:27:32;;;;;;;8.85;5.05;;;22.70;35.20;;;;;;6111190;28;80903;-66
2022/04/03 01:30:33;;;;;;;9.02;5.50;;;22.70;35.10;;;;;;6122540;28;80646;-66
2022/04/03 01:33:33;;;;;;;11.13;5.90;;;22.70;35.10;;;;;;6111208;28;81573;-66
2022/04/03 01:36:35;;;;;;;11.98;5.80;;;22.70;35.10;;;;;;6111129;28;80511;-68
2022/04/03 01:39:35;;;;;;;13.10;5.65;;;22.70;35.10;;;;;;6110999;28;80458;-67
2022/04/03 01:42:36;;;;;;;9.85;5.50;;;22.70;35.00;;;;;;6111148;28;80576;-67
2022/04/03 01:45:36;;;;;;;8.55;5.07;;;22.70;35.70;;;;;;6109341;28;80326;-66
2022/04/03 01:48:37;;;;;;;10.98;4.90;;;22.70;35.10;;;;;;6110909;28;80637;-66
2022/04/03 01:51:37;;;;;;;9.70;5.15;;;22.70;35.00;;;;;;6111022;28;81013;-66
2022/04/03 01:54:38;;;;;;;8.43;5.38;;;22.70;35.00;;;;;;6111128;28;80339;-66
2022/04/03 01:57:39;;;;;;;9.15;5.20;;;22.60;34.90;;;;;;6110717;28;80733;-67
2022/04/03 02:00:39;;;;;;;7.93;5.22;;;22.70;34.90;;;;;;6123541;28;80624;-67
2022/04/03 02:03:40;;;;;;;11.27;5.53;;;22.70;34.90;;;;;;6130113;28;81304;-67
2022/04/03 02:06:40;;;;;;;7.55;4.70;;;22.70;34.90;;;;;;6111542;28;80819;-67
2022/04/03 02:09:42;;;;;;;7.80;4.60;;;22.70;34.80;;;;;;6113740;28;80199;-67
2022/04/03 02:12:43;;;;;;;7.18;4.60;;;22.70;34.80;;;;;;6105431;28;80387;-67
2022/04/03 02:15:43;;;;;;;10.60;5.03;;;22.70;34.80;;;;;;6124119;28;81526;-67
2022/04/03 02:18:44;;;;;;;7.85;5.05;;;22.70;34.60;;;;;;6114428;28;82261;-67
2022/04/03 02:21:44;;;;;;;8.70;5.13;;;22.70;34.70;;;;;;6114763;28;80606;-67
2022/04/03 02:24:45;;;;;;;8.07;4.43;;;22.70;34.70;;;;;;6114547;28;80603;-67
2022/04/03 02:27:46;;;;;;;8.43;4.32;;;22.70;34.60;;;;;;6114619;28;80629;-68
2022/04/03 02:30:47;;;;;;;6.78;4.07;;;22.70;34.50;;;;;;6114664;28;80534;-68
2022/04/03 02:33:47;;;;;;;8.35;4.55;;;22.70;34.50;;;;;;6115242;28;80394;-68
2022/04/03 02:36:48;;;;;;;7.25;3.90;;;22.70;34.40;;;;;;6115222;28;80524;-68
2022/04/03 02:39:48;;;;;;;6.22;3.47;;;22.70;34.50;;;;;;6114450;28;80751;-68
2022/04/03 02:42:50;;;;;;;7.43;3.83;;;22.60;34.40;;;;;;6114512;28;80431;-68
2022/04/03 02:45:51;;;;;;;7.70;4.43;;;22.60;34.50;;;;;;6105104;28;80627;-69
2022/04/03 02:48:52;;;;;;;8.50;4.28;;;22.60;35.30;;;;;;6114200;28;80426;-69
2022/04/03 02:51:52;;;;;;;7.35;4.00;;;22.60;36.10;;;;;;6113649;28;85002;-69
2022/04/03 02:54:53;;;;;;;5.03;3.20;;;22.60;36.40;;;;;;6114082;28;80513;-69
2022/04/03 02:57:53;;;;;;;7.38;3.38;;;22.60;36.50;;;;;;6113760;28;80406;-69
2022/04/03 03:00:54;;;;;;;4.80;3.50;;;22.60;36.60;;;;;;6114006;28;80602;-69
2022/04/03 03:03:55;;;;;;;5.45;2.90;;;22.60;36.70;;;;;;6113917;28;80360;-68
2022/04/03 03:06:56;;;;;;;4.72;3.17;;;22.60;36.60;;;;;;6113576;28;80597;-68
2022/04/03 03:09:57;;;;;;;5.13;3.13;;;22.60;36.50;;;;;;6112750;28;80751;-68
2022/04/03 03:12:57;;;;;;;5.78;3.22;;;22.60;36.10;;;;;;6113941;28;80926;-66
2022/04/03 03:15:58;;;;;;;5.05;2.80;;;22.70;36.00;;;;;;6113309;28;80838;-67
2022/04/03 03:18:58;;;;;;;6.20;3.90;;;22.70;36.00;;;;;;6113273;28;80550;-67
2022/04/03 03:21:59;;;;;;;4.60;3.35;;;22.70;35.00;;;;;;6117612;28;80970;-67
2022/04/03 03:24:59;;;;;;;8.95;3.30;;;22.80;34.70;;;;;;6120365;28;81689;-65
2022/04/03 03:28:00;;;;;;;5.82;3.22;;;22.90;34.40;;;;;;6113593;28;80263;-67
2022/04/03 03:31:01;;;;;;;4.85;2.65;;;22.90;34.20;;;;;;6113482;28;80306;-67
2022/04/03 03:34:02;;;;;;;4.13;3.08;;;22.90;33.90;;;;;;6111496;28;80386;-65
2022/04/03 03:37:02;;;;;;;7.25;3.85;;;23.00;33.60;;;;;;6113040;28;80581;-65
2022/04/03 03:40:03;;;;;;;6.72;3.22;;;23.00;33.50;;;;;;6113124;28;80567;-66
2022/04/03 03:43:04;;;;;;;7.88;3.63;;;23.10;33.30;;;;;;6113225;28;80657;-66
2022/04/03 03:46:05;;;;;;;5.65;3.13;;;23.10;33.30;;;;;;6113506;28;81191;-68
2022/04/03 03:49:06;;;;;;;4.18;3.00;;;23.10;33.10;;;;;;6112252;28;80530;-67
2022/04/03 03:52:07;;;;;;;5.03;3.20;;;23.10;32.90;;;;;;6114547;28;80326;-68
2022/04/03 03:55:07;;;;;;;3.85;2.75;;;23.20;32.90;;;;;;6137228;28;80192;-68
2022/04/03 03:58:08;;;;;;;7.97;3.80;;;23.20;32.70;;;;;;6115301;28;80482;-66
2022/04/03 04:01:08;;;;;;;7.38;3.40;;;23.20;32.70;;;;;;6108417;28;81452;-67
2022/04/03 04:04:09;;;;;;;5.47;3.42;;;23.20;32.70;;;;;;6117249;28;80994;-68
2022/04/03 04:07:09;;;;;;;6.45;3.60;;;23.30;32.50;;;;;;6101179;28;80378;-68
2022/04/03 04:10:12;;;;;;;6.28;3.30;;;23.30;32.50;;;;;;6111478;28;81317;-68
2022/04/03 04:13:12;;;;;;;8.13;3.70;;;23.30;32.40;;;;;;6092203;28;80860;-67
2022/04/03 04:16:13;;;;;;;4.68;3.13;;;23.30;32.30;;;;;;6088619;28;80537;-68
2022/04/03 04:19:13;;;;;;;5.03;3.00;;;23.30;32.20;;;;;;6100211;28;80514;-69
2022/04/03 04:22:14;;;;;;;5.82;3.20;;;23.30;32.10;;;;;;6110560;28;80529;-67
2022/04/03 04:25:14;;;;;;;5.20;3.30;;;23.30;32.00;;;;;;6112070;28;80815;-67
2022/04/03 04:28:15;;;;;;;5.45;3.15;;;23.40;32.10;;;;;;6092987;28;80558;-68
2022/04/03 04:31:16;;;;;;;5.45;2.75;;;23.40;32.10;;;;;;6088271;28;80398;-67
2022/04/03 04:34:17;;;;;;;4.72;2.85;;;23.40;32.10;;;;;;6111909;28;81589;-66
2022/04/03 04:37:17;;;;;;;5.85;2.88;;;23.40;31.90;;;;;;6110418;28;80535;-66
2022/04/03 04:40:18;;;;;;;9.07;3.63;;;23.40;32.10;;;;;;6111363;28;80432;-72
2022/04/03 04:43:18;;;;;;;4.65;3.10;;;23.40;32.40;;;;;;6097955;28;80326;-73
2022/04/03 04:46:20;;;;;;;7.18;3.47;;;23.40;32.90;;;;;;6092133;28;80563;-72
2022/04/03 04:49:21;;;;;;;4.43;3.25;;;23.40;31.90;;;;;;6113345;28;80348;-71
2022/04/03 04:52:21;;;;;;;7.30;4.00;;;23.40;31.80;;;;;;6131248;28;80470;-70
2022/04/03 04:55:22;;;;;;;5.47;3.00;;;23.40;31.90;;;;;;6108141;28;80830;-70
2022/04/03 04:58:22;;;;;;;6.40;3.50;;;23.40;31.90;;;;;;6109844;28;87678;-65
2022/04/03 05:01:23;;;;;;;11.57;3.65;;;23.50;32.00;;;;;;6108979;28;80641;-66
2022/04/03 05:04:23;;;;;;;7.30;3.50;;;23.40;31.90;;;;;;6102107;28;80421;-70
2022/04/03 05:07:24;;;;;;;10.85;3.28;;;23.40;31.90;;;;;;6108966;28;81868;-65
2022/04/03 05:10:24;;;;;;;6.13;2.72;;;23.40;33.10;;;;;;6086866;28;80581;-66
2022/04/03 05:13:25;;;;;;;11.85;3.22;;;23.30;34.60;;;;;;6096024;28;81390;-64
2022/04/03 05:16:26;;;;;;;5.75;2.97;;;23.30;35.40;;;;;;6111071;28;80457;-67
2022/04/03 05:19:27;;;;;;;4.78;3.10;;;23.20;35.90;;;;;;6094258;28;80720;-67
2022/04/03 05:22:27;;;;;;;8.27;4.10;;;23.20;36.40;;;;;;6087053;28;81179;-69
2022/04/03 05:25:28;;;;;;;32.20;12.38;;;23.20;37.10;;;;;;6088052;28;80585;-67
2022/04/03 05:28:28;;;;;;;31.00;12.18;;;23.20;38.10;;;;;;6097619;28;82993;-67
2022/04/03 05:31:29;;;;;;;27.58;9.63;;;23.10;38.50;;;;;;6083895;28;83615;-67
2022/04/03 05:34:29;;;;;;;25.08;9.65;;;23.20;38.70;;;;;;6086652;28;83435;-65
2022/04/03 05:37:30;;;;;;;25.33;10.88;;;23.10;39.00;;;;;;6109430;28;81120;-67
2022/04/03 05:40:30;;;;;;;23.23;9.05;;;23.10;39.90;;;;;;6106861;28;83270;-64
2022/04/03 05:43:31;;;;;;;21.20;9.30;;;23.10;39.90;;;;;;6105391;28;82917;-64
2022/04/03 05:46:31;;;;;;;14.40;7.80;;;23.00;40.00;;;;;;6086903;28;80238;-67
2022/04/03 05:49:32;;;;;;;15.45;7.13;;;23.00;40.10;;;;;;6098909;28;80991;-63
2022/04/03 05:52:32;;;;;;;16.02;7.20;;;23.00;40.00;;;;;;6109154;28;81775;-65
2022/04/03 05:55:33;;;;;;;16.65;7.07;;;23.00;39.80;;;;;;6110395;28;80454;-69
2022/04/03 05:58:33;;;;;;;15.70;7.05;;;22.90;39.90;;;;;;6110601;28;81413;-66
2022/04/03 06:01:34;;;;;;;16.63;6.78;;;22.90;39.90;;;;;;6110655;28;80382;-64
2022/04/03 06:04:34;;;;;;;16.38;6.57;;;22.90;40.00;;;;;;6109978;28;80557;-64
2022/04/03 06:07:35;;;;;;;13.85;6.15;;;22.90;39.90;;;;;;6110379;28;81446;-66
2022/04/03 06:10:35;;;;;;;13.70;5.47;;;22.90;40.00;;;;;;6109691;28;80848;-67
2022/04/03 06:13:36;;;;;;;11.25;6.10;;;22.80;39.70;;;;;;6110188;28;80404;-66
2022/04/03 06:16:36;;;;;;;14.50;5.38;;;22.90;39.50;;;;;;6110291;28;80422;-66
2022/04/03 06:19:37;;;;;;;13.60;6.30;;;22.90;39.30;;;;;;6109838;28;80543;-66
2022/04/03 06:22:37;;;;;;;14.93;6.60;;;22.90;39.70;;;;;;6110239;28;85699;-66
2022/04/03 06:25:38;;;;;;;14.18;6.30;;;22.80;40.40;;;;;;6110131;28;80794;-67
2022/04/03 06:28:38;;;;;;;12.70;5.55;;;22.90;40.40;;;;;;6110499;28;80322;-66
2022/04/03 06:31:39;;;;;;;17.50;5.75;;;22.90;40.70;;;;;;6109507;28;80976;-66
2022/04/03 06:34:39;;;;;;;16.80;6.03;;;22.90;40.40;;;;;;6110116;28;80370;-71
2022/04/03 06:37:40;;;;;;;16.67;5.35;;;22.90;41.10;;;;;;6110083;28;80045;-66
2022/04/03 06:40:40;;;;;;;10.38;5.03;;;22.90;40.90;;;;;;6109811;28;80395;-67
2022/04/03 06:43:41;;;;;;;17.55;5.32;;;22.90;41.00;;;;;;6109489;28;80238;-67
2022/04/03 06:46:41;;;;;;;11.07;4.72;;;22.90;41.40;;;;;;6106659;28;81343;-67
2022/04/03 06:49:42;;;;;;;12.23;5.40;;;23.00;41.20;;;;;;6105231;28;80609;-70
2022/04/03 06:52:43;;;;;;;11.45;5.72;;;22.90;41.80;;;;;;6109106;28;80343;-68
2022/04/03 06:55:43;;;;;;;12.30;4.47;;;22.80;42.00;;;;;;6104231;28;81194;-63
2022/04/03 06:58:44;;;;;;;14.77;5.03;;;22.80;42.10;;;;;;6108120;28;80998;-63
2022/04/03 07:01:44;;;;;;;7.78;4.13;;;22.80;42.00;;;;;;6112663;28;80788;-64
2022/04/03 07:04:45;;;;;;;10.65;4.70;;;22.80;42.00;;;;;;6113380;28;80528;-66
2022/04/03 07:07:45;;;;;;;11.15;4.85;;;22.80;42.20;;;;;;6113848;28;80677;-67
2022/04/03 07:10:46;;;;;;;10.00;4.53;;;22.70;42.20;;;;;;6111366;28;80402;-72
2022/04/03 07:13:48;;;;;;;14.13;4.80;;;22.80;42.40;;;;;;6113822;28;80292;-70
2022/04/03 07:16:48;;;;;;;8.95;3.95;;;22.90;42.40;;;;;;6113454;28;81007;-64
2022/04/03 07:19:49;;;;;;;18.67;6.53;;;22.90;42.80;;;;;;6113477;28;80482;-64
2022/04/03 07:22:49;;;;;;;91.07;38.22;;;22.90;42.60;;;;;;6113527;28;80677;-66
2022/04/03 07:25:50;;;;;;;155.52;67.22;;;23.00;42.90;;;;;;6110111;28;82811;-69
2022/04/03 07:28:50;;;;;;;265.13;119.18;;;23.00;42.50;;;;;;6109721;28;84760;-68
2022/04/03 07:31:51;;;;;;;339.00;155.57;;;23.10;42.80;;;;;;6106686;28;85467;-66
2022/04/03 07:34:51;;;;;;;284.70;126.78;;;23.10;42.90;;;;;;6106986;28;85347;-73
2022/04/03 07:37:52;;;;;;;260.27;115.60;;;23.10;42.50;;;;;;6106876;28;85951;-74
2022/04/03 07:40:53;;;;;;;225.57;96.22;;;23.10;42.80;;;;;;6106735;28;85456;-72
2022/04/03 07:43:53;;;;;;;195.70;80.82;;;23.10;42.50;;;;;;6109812;28;86702;-72
2022/04/03 07:46:54;;;;;;;165.13;75.05;;;23.10;42.20;;;;;;6109850;28;83789;-65
2022/04/03 07:49:54;;;;;;;155.38;65.88;;;23.10;42.20;;;;;;6109625;28;83191;-68
2022/04/03 07:52:55;;;;;;;133.02;57.97;;;23.10;42.80;;;;;;6107556;28;84069;-68
2022/04/03 07:55:55;;;;;;;181.13;78.05;;;23.10;42.60;;;;;;6109351;28;83529;-67
2022/04/03 07:58:56;;;;;;;243.68;108.93;;;23.10;42.50;;;;;;6109142;28;83011;-69
2022/04/03 08:01:56;;;;;;;294.85;133.57;;;23.20;42.30;;;;;;6104196;28;86313;-67
2022/04/03 08:04:57;;;;;;;334.50;153.52;;;23.30;42.10;;;;;;6102914;28;86664;-74
2022/04/03 08:07:58;;;;;;;362.02;163.38;;;23.40;41.90;;;;;;6105553;28;86750;-75
2022/04/03 08:10:58;;;;;;;389.20;177.32;;;23.40;42.00;;;;;;6105694;28;85360;-67
2022/04/03 08:13:59;;;;;;;291.55;138.70;;;23.30;41.80;;;;;;6102172;28;85688;-68
2022/04/03 08:16:59;;;;;;;261.38;123.22;;;23.30;41.50;;;;;;6099346;28;86053;-72
2022/04/03 08:20:00;;;;;;;244.90;111.40;;;23.40;41.30;;;;;;6096775;28;85466;-72
2022/04/03 08:23:03;;;;;;;210.77;101.22;;;23.30;41.30;;;;;;6097219;28;86218;-71
2022/04/03 08:26:04;;;;;;;199.95;89.78;;;23.40;41.60;;;;;;6101803;28;86047;-68
2022/04/03 08:29:04;;;;;;;192.40;85.97;;;23.40;41.50;;;;;;6103302;28;85210;-69
2022/04/03 08:32:05;;;;;;;167.82;77.05;;;23.40;41.20;;;;;;6108629;28;83172;-70
2022/04/03 08:35:05;;;;;;;151.20;70.00;;;23.40;41.20;;;;;;6108941;28;84231;-71
2022/04/03 08:38:06;;;;;;;138.70;61.42;;;23.40;40.90;;;;;;6109042;28;83140;-74
2022/04/03 08:41:06;;;;;;;122.55;57.97;;;23.40;40.70;;;;;;6108837;28;83241;-71
2022/04/03 08:44:07;;;;;;;122.20;56.50;;;23.50;40.90;;;;;;6109273;28;84028;-72
2022/04/03 08:47:08;;;;;;;110.80;48.10;;;23.50;40.60;;;;;;6127054;28;88833;-72
2022/04/03 08:50:10;;;;;;;106.07;49.00;;;23.50;40.60;;;;;;6103377;28;83162;-76
2022/04/03 08:53:11;;;;;;;90.95;43.40;;;23.50;40.60;;;;;;6108229;28;85665;-72
2022/04/03 08:56:11;;;;;;;87.63;41.33;;;23.50;40.60;;;;;;6107309;28;83225;-71
2022/04/03 08:59:12;;;;;;;83.32;38.28;;;23.50;40.70;;;;;;6107457;28;82974;-73
2022/04/03 09:02:12;;;;;;;77.07;36.95;;;23.50;41.10;;;;;;6107918;28;83208;-74
2022/04/03 09:05:14;;;;;;;72.65;34.22;;;23.60;41.30;;;;;;6108631;28;83088;-76
2022/04/03 09:08:14;;;;;;;73.75;31.98;;;23.60;41.20;;;;;;6108308;28;83328;-72
2022/04/03 09:11:15;;;;;;;68.43;33.08;;;23.60;41.10;;;;;;6107149;28;85731;-76
2022/04/03 09:14:16;;;;;;;66.68;29.63;;;23.60;41.10;;;;;;6108327;28;83167;-78
2022/04/03 09:17:16;;;;;;;57.75;28.55;;;23.70;40.60;;;;;;6107776;28;82849;-76
2022/04/03 09:20:17;;;;;;;56.38;28.85;;;23.80;40.60;;;;;;6093581;28;83015;-77
2022/04/03 09:23:17;;;;;;;60.65;28.85;;;23.80;40.50;;;;;;6092603;28;83057;-77
2022/04/03 09:26:18;;;;;;;56.83;28.25;;;23.80;41.80;;;;;;6108775;28;83237;-73
2022/04/03 09:29:18;;;;;;;52.58;24.05;;;23.90;39.90;;;;;;6094799;28;82970;-71
2022/04/03 09:32:19;;;;;;;45.25;22.90;;;23.90;40.00;;;;;;6095971;28;84087;-74
2022/04/03 09:35:19;;;;;;;44.67;21.92;;;23.90;40.20;;;;;;6104126;28;83261;-70
2022/04/03 09:38:20;;;;;;;49.50;22.83;;;23.90;40.00;;;;;;6103899;28;84231;-71
2022/04/03 09:41:20;;;;;;;37.83;19.00;;;24.00;39.90;;;;;;6106944;28;83129;-70
2022/04/03 09:44:21;;;;;;;37.58;18.25;;;24.00;39.70;;;;;;6105410;28;83154;-69
2022/04/03 09:47:21;;;;;;;38.10;17.38;;;24.00;39.20;;;;;;6092838;28;83527;-68
2022/04/03 09:50:22;;;;;;;34.92;18.35;;;24.10;39.20;;;;;;6086705;28;83619;-67
2022/04/03 09:53:23;;;;;;;36.60;16.33;;;24.10;39.20;;;;;;6084948;28;83711;-68
2022/04/03 09:56:23;;;;;;;38.03;15.60;;;24.20;38.90;;;;;;6103129;28;83231;-67
2022/04/03 09:59:24;;;;;;;29.60;14.48;;;24.20;38.80;;;;;;6102819;28;83120;-69
2022/04/03 10:02:24;;;;;;;24.15;12.95;;;24.20;38.30;;;;;;6083382;28;83037;-68
2022/04/03 10:05:25;;;;;;;26.40;12.45;;;24.20;38.30;;;;;;6100791;28;83986;-66
2022/04/03 10:08:27;;;;;;;21.00;11.57;;;24.20;38.10;;;;;;6103380;28;83100;-68
2022/04/03 10:11:29;;;;;;;21.30;10.93;;;24.30;38.10;;;;;;6094687;28;83657;-66
2022/04/03 10:14:29;;;;;;;19.88;10.73;;;24.30;38.20;;;;;;6105472;28;83009;-66
2022/04/03 10:17:30;;;;;;;19.60;11.07;;;24.40;38.00;;;;;;6104419;28;83113;-66
2022/04/03 10:20:30;;;;;;;20.88;10.85;;;24.40;37.70;;;;;;6090254;28;84324;-66
2022/04/03 10:23:31;;;;;;;25.05;10.50;;;24.40;38.50;;;;;;6105100;28;83041;-67
2022/04/03 10:26:32;;;;;;;22.00;9.55;;;24.40;39.00;;;;;;6102808;28;83597;-65
2022/04/03 10:29:32;;;;;;;17.33;9.38;;;24.40;38.10;;;;;;6110986;28;83933;-67
2022/04/03 10:32:36;;;;;;;14.45;8.48;;;24.50;38.10;;;;;;6108324;28;80619;-67
2022/04/03 10:35:36;;;;;;;14.60;8.57;;;24.40;37.60;;;;;;6112383;28;80525;-68
2022/04/03 10:38:37;;;;;;;16.02;8.63;;;24.40;37.50;;;;;;6110283;28;80656;-66
2022/04/03 10:41:39;;;;;;;17.45;8.48;;;24.50;37.00;;;;;;6113162;28;80851;-66
2022/04/03 10:44:40;;;;;;;22.05;8.90;;;24.50;36.80;;;;;;6119072;28;80329;-67
2022/04/03 10:47:40;;;;;;;16.27;7.25;;;24.50;37.10;;;;;;6137854;28;80598;-67
2022/04/03 10:50:41;;;;;;;9.40;5.93;;;24.60;37.00;;;;;;6123741;28;80213;-65
2022/04/03 10:53:41;;;;;;;14.88;5.22;;;24.40;35.10;;;;;;6111738;28;81742;-66
2022/04/03 10:56:42;;;;;;;12.05;5.32;;;24.40;34.10;;;;;;6101625;28;80407;-66
2022/04/03 10:59:42;;;;;;;13.18;5.63;;;24.30;33.80;;;;;;6104133;28;80872;-65
2022/04/03 11:02:43;;;;;;;8.30;4.65;;;24.10;33.10;;;;;;6112292;28;80167;-68
2022/04/03 11:05:43;;;;;;;10.93;4.40;;;24.10;32.20;;;;;;6113537;28;80435;-67
2022/04/03 11:08:44;;;;;;;11.98;4.90;;;23.90;31.20;;;;;;6113307;28;80547;-63
2022/04/03 11:11:44;;;;;;;10.00;4.72;;;23.70;30.90;;;;;;6100647;28;80557;-64
2022/04/03 11:14:45;;;;;;;9.15;3.95;;;23.60;30.90;;;;;;6091791;28;80351;-65
2022/04/03 11:17:45;;;;;;;5.85;3.75;;;23.50;31.10;;;;;;6113826;28;80568;-62
2022/04/03 11:20:47;;;;;;;8.43;4.20;;;23.40;30.70;;;;;;6112926;28;80354;-65
2022/04/03 11:23:47;;;;;;;9.13;3.60;;;23.30;31.70;;;;;;6109387;28;83550;-64
2022/04/03 11:26:48;;;;;;;6.97;3.72;;;23.50;32.80;;;;;;6106776;28;80584;-72
2022/04/03 11:29:49;;;;;;;14.70;3.85;;;23.70;32.50;;;;;;6109718;28;81468;-68
2022/04/03 11:32:50;;;;;;;5.47;3.40;;;23.70;33.20;;;;;;6112293;28;81983;-68
2022/04/03 11:35:50;;;;;;;7.25;3.17;;;23.80;33.50;;;;;;6110523;28;80470;-69
2022/04/03 11:38:51;;;;;;;5.82;3.40;;;23.90;33.90;;;;;;6112324;28;80744;-75
2022/04/03 11:41:51;;;;;;;10.38;3.47;;;24.00;34.00;;;;;;6113081;28;80465;-66
2022/04/03 11:44:52;;;;;;;5.47;3.60;;;24.10;34.00;;;;;;6112615;28;80711;-66
2022/04/03 11:47:52;;;;;;;5.20;3.45;;;24.10;34.30;;;;;;6113714;28;80960;-67
2022/04/03 11:50:53;;;;;;;5.78;3.22;;;24.20;34.10;;;;;;6130634;28;80229;-66
2022/04/03 11:53:53;;;;;;;8.20;4.00;;;24.30;33.70;;;;;;6108454;28;80303;-65
2022/04/03 11:56:54;;;;;;;5.93;3.05;;;24.30;33.10;;;;;;6111790;28;80510;-66
2022/04/03 11:59:57;;;;;;;5.05;2.90;;;24.30;32.40;;;;;;6094660;28;81017;-70
2022/04/03 12:02:58;;;;;;;8.35;3.58;;;24.40;31.70;;;;;;6106078;28;80814;-67
2022/04/03 12:05:58;;;;;;;5.10;3.17;;;24.40;31.10;;;;;;6101500;28;80433;-67
2022/04/03 12:08:59;;;;;;;7.90;3.85;;;24.50;30.90;;;;;;6109562;28;81188;-67
2022/04/03 12:12:04;;;;;;;22.80;10.27;;;24.50;30.70;;;;;;6114195;28;80320;-68
2022/04/03 12:15:04;;;;;;;80.30;40.70;;;24.40;30.50;;;;;;6113094;28;83130;-67
2022/04/03 12:18:05;;;;;;;150.23;73.88;;;24.40;30.80;;;;;;6109473;28;83725;-67
2022/04/03 12:21:05;;;;;;;102.22;47.22;;;24.40;31.30;;;;;;6117711;28;84051;-73
2022/04/03 12:24:06;;;;;;;81.25;37.45;;;24.40;31.30;;;;;;6107634;28;83026;-64
2022/04/03 12:27:06;;;;;;;82.10;35.20;;;24.50;31.60;;;;;;6099692;28;82792;-71
2022/04/03 12:30:07;;;;;;;58.55;28.80;;;24.50;31.80;;;;;;6108238;28;83868;-67
2022/04/03 12:33:08;;;;;;;60.95;27.42;;;24.50;32.00;;;;;;6107940;28;84569;-69
2022/04/03 12:36:09;;;;;;;130.90;58.08;;;24.50;32.10;;;;;;6106755;28;83646;-67
2022/04/03 12:39:09;;;;;;;152.05;72.97;;;24.50;32.20;;;;;;6106801;28;83075;-69
2022/04/03 12:42:10;;;;;;;224.40;106.93;;;24.50;32.40;;;;;;6107649;28;83034;-68
2022/04/03 12:45:11;;;;;;;190.80;94.97;;;24.50;32.20;;;;;;6114559;28;85479;-70
2022/04/03 12:48:12;;;;;;;173.45;79.13;;;24.50;32.50;;;;;;6118495;28;85464;-67
2022/04/03 12:51:12;;;;;;;152.77;73.70;;;24.50;32.90;;;;;;6107517;28;83255;-68
2022/04/03 12:54:13;;;;;;;133.45;63.42;;;24.50;33.10;;;;;;6087707;28;83099;-66
2022/04/03 13:00:33;;;;;;;116.65;53.03;;;24.40;32.70;;;;;;6108148;28;82968;-68
2022/04/03 13:03:34;;;;;;;107.60;49.20;;;24.40;32.90;;;;;;6098669;28;84085;-67
2022/04/03 13:06:35;;;;;;;97.13;46.60;;;24.40;33.10;;;;;;6093388;28;84294;-67
2022/04/03 13:09:36;;;;;;;94.97;42.63;;;24.40;34.00;;;;;;6110257;28;84121;-67
2022/04/03 13:12:37;;;;;;;86.70;37.47;;;24.40;34.00;;;;;;6102669;28;82685;-66
2022/04/03 13:15:37;;;;;;;81.65;32.03;;;24.40;33.50;;;;;;6084038;28;83115;-67
2022/04/03 13:18:38;;;;;;;65.22;30.63;;;24.40;33.60;;;;;;6102135;28;82964;-67
2022/04/03 13:21:40;;;;;;;55.47;27.83;;;24.40;34.10;;;;;;6107614;28;83207;-66
2022/04/03 13:24:40;;;;;;;60.67;26.08;;;24.40;34.30;;;;;;6088589;28;82977;-69
2022/04/03 13:27:41;;;;;;;49.78;23.77;;;24.40;34.20;;;;;;6083525;28;83677;-69
2022/04/03 13:30:44;;;;;;;48.78;23.95;;;24.50;34.30;;;;;;6083176;28;82957;-67
2022/04/03 13:33:45;;;;;;;48.40;22.58;;;24.40;34.40;;;;;;6092412;28;83341;-66
2022/04/03 13:36:47;;;;;;;39.42;19.15;;;24.40;34.60;;;;;;6101918;28;83924;-70
2022/04/03 13:39:47;;;;;;;42.50;20.65;;;24.30;34.70;;;;;;6105824;28;83659;-70
2022/04/03 13:42:48;;;;;;;37.40;18.00;;;24.30;34.90;;;;;;6099677;28;82908;-68
2022/04/03 13:45:59;;;;;;;41.53;17.80;;;24.30;35.40;;;;;;6107518;28;83327;-68
2022/04/03 13:48:59;;;;;;;33.60;16.92;;;24.30;35.10;;;;;;6101141;28;83708;-68
2022/04/03 13:52:00;;;;;;;30.85;16.52;;;24.30;35.30;;;;;;6101511;28;84102;-68
2022/04/03 13:55:01;;;;;;;28.00;14.75;;;24.30;35.50;;;;;;6099852;28;83030;-70
2022/04/03 13:58:01;;;;;;;29.58;14.77;;;24.30;36.20;;;;;;6104741;28;83081;-66
2022/04/03 14:01:02;;;;;;;28.38;14.63;;;24.20;36.00;;;;;;6102639;28;83814;-66
2022/04/03 14:04:02;;;;;;;31.38;14.00;;;24.20;36.40;;;;;;6110801;28;90508;-66
2022/04/03 14:07:03;;;;;;;26.40;12.98;;;24.20;36.90;;;;;;6097702;28;83507;-65
2022/04/03 14:10:04;;;;;;;24.85;11.40;;;24.20;36.20;;;;;;6117497;28;83491;-66
2022/04/03 14:13:05;;;;;;;23.52;11.40;;;24.10;36.10;;;;;;6113510;28;83018;-66
2022/04/03 14:16:06;;;;;;;28.23;11.63;;;24.10;36.00;;;;;;6121156;28;83801;-68
2022/04/03 14:19:06;;;;;;;21.88;11.48;;;24.10;35.90;;;;;;6116733;28;82983;-65
2022/04/03 14:22:07;;;;;;;20.08;10.05;;;24.10;35.90;;;;;;6098892;28;83535;-65
2022/04/03 14:25:08;;;;;;;17.60;9.27;;;24.10;35.90;;;;;;6093559;28;83132;-65
2022/04/03 14:28:10;;;;;;;18.00;9.43;;;24.00;35.80;;;;;;6109597;28;82660;-65
2022/04/03 14:31:10;;;;;;;19.45;9.30;;;24.00;36.10;;;;;;6107893;28;80849;-64
2022/04/03 14:34:10;;;;;;;18.33;8.15;;;23.90;36.30;;;;;;6113669;28;80339;-65
2022/04/03 14:37:11;;;;;;;19.45;9.25;;;24.00;37.10;;;;;;6116988;28;80622;-66
2022/04/03 14:40:13;;;;;;;12.68;7.35;;;24.00;37.10;;;;;;6094923;28;80554;-66
2022/04/03 14:43:14;;;;;;;10.00;6.53;;;24.00;37.60;;;;;;6118837;28;80964;-66
2022/04/03 14:46:14;;;;;;;9.25;5.22;;;24.00;37.70;;;;;;6104721;28;80402;-67
2022/04/03 14:49:16;;;;;;;11.25;4.93;;;24.10;37.80;;;;;;6109937;28;80470;-68
2022/04/03 14:52:17;;;;;;;8.88;4.50;;;24.10;37.80;;;;;;6101948;28;80567;-67
2022/04/03 14:55:18;;;;;;;7.03;4.22;;;24.20;37.80;;;;;;6104087;28;80899;-65
2022/04/03 14:58:19;;;;;;;13.30;5.07;;;24.30;37.70;;;;;;6111236;28;80616;-66
2022/04/03 15:01:19;;;;;;;8.90;4.57;;;24.30;37.60;;;;;;6112790;28;80207;-64
2022/04/03 15:04:20;;;;;;;7.30;4.80;;;24.30;37.40;;;;;;6105301;28;81886;-63
2022/04/03 15:07:20;;;;;;;9.45;5.00;;;24.30;38.20;;;;;;6103931;28;80294;-67
2022/04/03 15:10:22;;;;;;;8.32;4.45;;;24.30;37.50;;;;;;6106953;28;80771;-66
2022/04/03 15:13:25;;;;;;;9.23;4.47;;;24.30;38.00;;;;;;6105890;28;81544;-65
2022/04/03 15:16:25;;;;;;;6.45;4.50;;;24.30;38.30;;;;;;6106388;28;80538;-66
2022/04/03 15:19:26;;;;;;;7.10;4.68;;;24.30;38.10;;;;;;6109326;28;80547;-67
2022/04/03 15:22:27;;;;;;;8.00;4.20;;;24.20;38.20;;;;;;6112515;28;80624;-67
2022/04/03 15:25:27;;;;;;;6.85;4.03;;;24.20;38.30;;;;;;6112531;28;80957;-69
2022/04/03 15:28:28;;;;;;;10.55;4.72;;;24.20;38.10;;;;;;6102514;28;80467;-68